createdAt,value
2018-12-09T00:01:31.081Z,7.90
2018-12-09T00:03:07.937Z,7.90
2018-12-09T00:04:44.844Z,7.90
2018-12-09T00:06:21.918Z,7.90
2018-12-09T00:07:57.241Z,7.80
2018-12-09T00:09:32.249Z,7.90
2018-12-09T00:11:07.201Z,7.80
2018-12-09T00:12:42.315Z,7.80
2018-12-09T00:14:18.072Z,7.80
2018-12-09T00:15:53.040Z,7.70
2018-12-09T00:17:28.098Z,7.70
2018-12-09T00:19:03.055Z,7.70
2018-12-09T00:20:38.017Z,7.70
2018-12-09T00:22:13.537Z,7.80
2018-12-09T00:23:48.401Z,7.90
2018-12-09T00:25:25.401Z,7.90
2018-12-09T00:27:00.336Z,8.00
2018-12-09T00:28:35.196Z,8.00
2018-12-09T00:30:10.204Z,8.00
2018-12-09T00:31:45.102Z,8.00
2018-12-09T00:33:19.990Z,8.00
2018-12-09T00:34:55.908Z,8.00
2018-12-09T00:36:30.804Z,8.00
2018-12-09T00:38:05.798Z,7.90
2018-12-09T00:39:40.704Z,7.90
2018-12-09T00:41:15.790Z,7.90
2018-12-09T00:42:50.780Z,7.80
2018-12-09T00:44:25.704Z,7.90
2018-12-09T00:46:00.566Z,7.90
2018-12-09T00:47:35.411Z,8.00
2018-12-09T00:49:10.396Z,8.00
2018-12-09T00:50:45.387Z,8.00
2018-12-09T00:52:20.259Z,8.00
2018-12-09T00:53:55.195Z,8.10
2018-12-09T00:55:30.038Z,8.10
2018-12-09T00:57:05.121Z,8.10
2018-12-09T00:58:40.107Z,8.10
2018-12-09T01:00:15.126Z,8.10
2018-12-09T01:01:50.152Z,8.20
2018-12-09T01:03:25.157Z,8.20
2018-12-09T01:05:00.296Z,8.20
2018-12-09T01:06:35.262Z,8.30
2018-12-09T01:08:10.434Z,8.30
2018-12-09T01:09:45.279Z,8.40
2018-12-09T01:11:20.142Z,8.40
2018-12-09T01:12:55.105Z,8.50
2018-12-09T01:14:30.250Z,8.50
2018-12-09T01:16:05.219Z,8.60
2018-12-09T01:17:40.174Z,8.60
2018-12-09T01:19:15.264Z,8.60
2018-12-09T01:20:50.188Z,8.70
2018-12-09T01:22:25.149Z,8.70
2018-12-09T01:24:00.312Z,8.70
2018-12-09T01:25:35.537Z,8.70
2018-12-09T01:27:10.613Z,8.70
2018-12-09T01:28:45.549Z,8.70
2018-12-09T01:30:20.397Z,8.70
2018-12-09T01:31:55.386Z,8.80
2018-12-09T01:33:30.275Z,8.80
2018-12-09T01:35:06.240Z,8.80
2018-12-09T01:36:41.618Z,8.80
2018-12-09T01:38:16.596Z,8.90
2018-12-09T01:39:51.478Z,8.90
2018-12-09T01:41:26.817Z,8.90
2018-12-09T01:43:01.719Z,8.90
2018-12-09T01:44:36.667Z,8.90
2018-12-09T01:46:11.604Z,8.90
2018-12-09T01:47:46.544Z,8.80
2018-12-09T01:49:21.439Z,8.80
2018-12-09T01:50:56.405Z,8.70
2018-12-09T01:52:31.299Z,8.70
2018-12-09T01:54:12.332Z,8.70
2018-12-09T01:55:47.193Z,8.60
2018-12-09T01:57:22.184Z,8.60
2018-12-09T01:58:57.579Z,8.60
2018-12-09T02:00:32.449Z,8.60
2018-12-09T02:02:07.674Z,8.60
2018-12-09T02:03:42.552Z,8.50
2018-12-09T02:05:17.484Z,8.50
2018-12-09T02:06:52.510Z,8.50
2018-12-09T02:08:27.580Z,8.50
2018-12-09T02:10:02.488Z,8.50
2018-12-09T02:11:37.748Z,8.50
2018-12-09T02:13:12.619Z,8.50
2018-12-09T02:14:47.625Z,8.50
2018-12-09T02:16:24.577Z,8.50
2018-12-09T02:17:59.480Z,8.50
2018-12-09T02:19:34.453Z,8.50
2018-12-09T02:21:09.287Z,8.50
2018-12-09T02:22:44.249Z,8.40
2018-12-09T02:24:19.485Z,8.40
2018-12-09T02:25:54.855Z,8.40
2018-12-09T02:27:29.676Z,8.40
2018-12-09T02:29:04.577Z,8.30
2018-12-09T02:30:39.488Z,8.30
2018-12-09T02:32:14.371Z,8.30
2018-12-09T02:33:49.377Z,8.40
2018-12-09T02:35:24.440Z,8.40
2018-12-09T02:36:59.318Z,8.40
2018-12-09T02:38:34.264Z,8.40
2018-12-09T02:40:09.449Z,8.40
2018-12-09T02:41:44.745Z,8.40
2018-12-09T02:43:20.116Z,8.40
2018-12-09T02:44:54.998Z,8.40
2018-12-09T02:46:29.866Z,8.40
2018-12-09T02:48:04.723Z,8.40
2018-12-09T02:49:39.605Z,8.50
2018-12-09T02:51:14.649Z,8.40
2018-12-09T02:52:49.828Z,8.40
2018-12-09T02:54:24.842Z,8.50
2018-12-09T02:55:59.691Z,8.60
2018-12-09T02:57:34.667Z,8.60
2018-12-09T02:59:09.719Z,8.70
2018-12-09T03:00:44.852Z,8.70
2018-12-09T03:02:20.653Z,8.80
2018-12-09T03:03:55.744Z,8.80
2018-12-09T03:05:30.820Z,8.80
2018-12-09T03:07:05.887Z,8.80
2018-12-09T03:08:40.762Z,8.80
2018-12-09T03:10:16.144Z,8.70
2018-12-09T03:11:51.093Z,8.70
2018-12-09T03:13:25.944Z,8.50
2018-12-09T03:15:01.148Z,8.40
2018-12-09T03:16:36.393Z,8.30
2018-12-09T03:18:11.280Z,8.20
2018-12-09T03:19:46.173Z,8.10
2018-12-09T03:21:21.522Z,8.00
2018-12-09T03:22:56.497Z,7.90
2018-12-09T03:24:31.374Z,7.80
2018-12-09T03:26:06.236Z,7.70
2018-12-09T03:27:41.364Z,7.60
2018-12-09T03:29:16.578Z,7.60
2018-12-09T03:30:51.572Z,7.60
2018-12-09T03:32:26.536Z,7.50
2018-12-09T03:34:01.413Z,7.50
2018-12-09T03:35:36.274Z,7.50
2018-12-09T03:37:11.129Z,7.50
2018-12-09T03:38:46.007Z,7.40
2018-12-09T03:40:21.268Z,7.40
2018-12-09T03:41:56.159Z,7.40
2018-12-09T03:43:31.040Z,7.40
2018-12-09T03:45:06.217Z,7.40
2018-12-09T03:46:41.193Z,7.40
2018-12-09T03:48:16.049Z,7.40
2018-12-09T03:49:50.971Z,7.40
2018-12-09T03:51:25.885Z,7.30
2018-12-09T03:53:00.728Z,7.30
2018-12-09T03:54:35.612Z,7.40
2018-12-09T03:56:10.573Z,7.40
2018-12-09T03:57:45.519Z,7.50
2018-12-09T03:59:20.695Z,7.50
2018-12-09T04:00:55.570Z,7.50
2018-12-09T04:02:30.449Z,7.60
2018-12-09T04:04:05.438Z,7.60
2018-12-09T04:05:40.679Z,7.70
2018-12-09T04:07:15.522Z,7.70
2018-12-09T04:08:50.493Z,7.70
2018-12-09T04:10:25.534Z,7.80
2018-12-09T04:12:00.381Z,7.90
2018-12-09T04:13:35.282Z,7.90
2018-12-09T04:15:10.173Z,7.90
2018-12-09T04:16:45.220Z,8.00
2018-12-09T04:18:20.181Z,8.10
2018-12-09T04:19:55.172Z,8.10
2018-12-09T04:21:30.083Z,8.10
2018-12-09T04:23:05.002Z,8.30
2018-12-09T04:24:39.952Z,8.30
2018-12-09T04:26:15.129Z,8.40
2018-12-09T04:27:50.113Z,8.40
2018-12-09T04:29:25.041Z,8.40
2018-12-09T04:30:59.923Z,8.50
2018-12-09T04:32:34.832Z,8.60
2018-12-09T04:34:09.742Z,8.60
2018-12-09T04:35:44.613Z,8.70
2018-12-09T04:37:19.544Z,8.70
2018-12-09T04:38:54.730Z,8.60
2018-12-09T04:40:29.588Z,8.60
2018-12-09T04:42:04.660Z,8.60
2018-12-09T04:43:39.521Z,8.60
2018-12-09T04:45:14.695Z,8.60
2018-12-09T04:46:49.569Z,8.60
2018-12-09T04:48:24.691Z,8.60
2018-12-09T04:49:59.716Z,8.60
2018-12-09T04:52:05.585Z,8.60
2018-12-09T04:53:40.437Z,8.50
2018-12-09T04:55:15.917Z,8.40
2018-12-09T04:56:50.749Z,8.30
2018-12-09T04:58:25.600Z,8.20
2018-12-09T05:00:11.868Z,8.10
2018-12-09T05:01:48.022Z,8.00
2018-12-09T05:03:23.093Z,8.00
2018-12-09T05:04:58.013Z,8.00
2018-12-09T05:06:32.853Z,8.00
2018-12-09T05:08:07.791Z,8.00
2018-12-09T05:09:42.675Z,8.00
2018-12-09T05:11:17.574Z,8.00
2018-12-09T05:12:52.888Z,7.90
2018-12-09T05:14:27.742Z,7.90
2018-12-09T05:16:02.670Z,7.90
2018-12-09T05:17:37.951Z,7.90
2018-12-09T05:19:13.018Z,7.80
2018-12-09T05:20:47.901Z,7.80
2018-12-09T05:22:22.760Z,7.80
2018-12-09T05:23:57.800Z,7.80
2018-12-09T05:25:32.681Z,7.80
2018-12-09T05:27:07.649Z,7.70
2018-12-09T05:28:42.509Z,7.70
2018-12-09T05:30:17.403Z,7.50
2018-12-09T05:31:54.468Z,7.30
2018-12-09T05:33:29.396Z,7.10
2018-12-09T05:35:04.432Z,7.00
2018-12-09T05:36:39.700Z,6.90
2018-12-09T05:38:14.563Z,6.80
2018-12-09T05:39:49.508Z,6.80
2018-12-09T05:41:24.535Z,6.70
2018-12-09T05:42:59.363Z,6.70
2018-12-09T05:44:34.541Z,6.70
2018-12-09T05:46:10.504Z,6.70
2018-12-09T05:47:45.534Z,6.70
2018-12-09T05:49:20.468Z,6.60
2018-12-09T05:50:55.524Z,6.50
2018-12-09T05:52:30.593Z,6.20
2018-12-09T05:54:05.530Z,6.00
2018-12-09T05:55:40.423Z,5.90
2018-12-09T05:57:15.271Z,5.70
2018-12-09T05:58:50.407Z,5.60
2018-12-09T06:00:25.382Z,5.50
2018-12-09T06:02:11.681Z,5.40
2018-12-09T06:03:46.596Z,5.40
2018-12-09T06:05:21.728Z,5.40
2018-12-09T06:06:57.105Z,5.30
2018-12-09T06:08:32.050Z,5.30
2018-12-09T06:10:06.913Z,5.30
2018-12-09T06:11:41.805Z,5.30
2018-12-09T06:13:16.786Z,5.30
2018-12-09T06:14:51.769Z,5.30
2018-12-09T06:16:26.754Z,5.30
2018-12-09T06:18:01.879Z,5.30
2018-12-09T06:19:36.801Z,5.30
2018-12-09T06:21:11.708Z,5.30
2018-12-09T06:22:46.589Z,5.20
2018-12-09T06:24:21.531Z,5.20
2018-12-09T06:25:56.421Z,5.20
2018-12-09T06:27:31.359Z,5.20
2018-12-09T06:29:06.219Z,5.20
2018-12-09T06:30:41.115Z,5.20
2018-12-09T06:32:15.944Z,5.20
2018-12-09T06:33:51.092Z,5.20
2018-12-09T06:35:26.029Z,5.20
2018-12-09T06:37:01.061Z,5.20
2018-12-09T06:38:35.924Z,5.20
2018-12-09T06:40:10.757Z,5.20
2018-12-09T06:41:45.801Z,5.20
2018-12-09T06:43:20.658Z,5.20
2018-12-09T06:44:55.614Z,5.10
2018-12-09T06:46:30.500Z,5.10
2018-12-09T06:48:05.364Z,5.10
2018-12-09T06:49:40.250Z,5.10
2018-12-09T06:51:15.100Z,5.10
2018-12-09T06:52:50.060Z,5.10
2018-12-09T06:54:24.929Z,5.10
2018-12-09T06:55:59.848Z,5.10
2018-12-09T06:57:34.678Z,5.00
2018-12-09T06:59:09.528Z,5.00
2018-12-09T07:00:44.564Z,5.00
2018-12-09T07:02:19.436Z,5.00
2018-12-09T07:03:54.369Z,5.00
2018-12-09T07:05:29.313Z,5.00
2018-12-09T07:07:04.453Z,5.00
2018-12-09T07:08:39.390Z,5.00
2018-12-09T07:10:14.266Z,4.90
2018-12-09T07:11:49.145Z,4.90
2018-12-09T07:13:24.038Z,4.90
2018-12-09T07:14:58.968Z,4.80
2018-12-09T07:16:34.317Z,4.80
2018-12-09T07:18:09.325Z,4.80
2018-12-09T07:19:44.181Z,4.70
2018-12-09T07:21:19.165Z,4.80
2018-12-09T07:22:54.183Z,4.80
2018-12-09T07:24:29.339Z,4.80
2018-12-09T07:26:04.438Z,4.80
2018-12-09T07:27:39.322Z,4.80
2018-12-09T07:29:14.252Z,4.80
2018-12-09T07:30:49.177Z,4.80
2018-12-09T07:32:24.069Z,4.80
2018-12-09T07:33:59.081Z,4.90
2018-12-09T07:35:33.997Z,4.90
2018-12-09T07:37:08.884Z,4.90
2018-12-09T07:38:43.742Z,5.00
2018-12-09T07:40:18.606Z,5.00
2018-12-09T07:41:53.512Z,5.00
2018-12-09T07:43:28.392Z,5.00
2018-12-09T07:45:03.549Z,5.00
2018-12-09T07:46:38.541Z,5.10
2018-12-09T07:48:13.401Z,5.10
2018-12-09T07:49:48.310Z,5.10
2018-12-09T07:51:23.617Z,5.10
2018-12-09T07:52:58.752Z,5.20
2018-12-09T07:54:33.749Z,5.20
2018-12-09T07:56:08.674Z,5.30
2018-12-09T07:57:43.578Z,5.30
2018-12-09T07:59:18.415Z,5.30
2018-12-09T08:00:53.370Z,5.30
2018-12-09T08:02:28.285Z,5.30
2018-12-09T08:04:03.246Z,5.40
2018-12-09T08:05:38.192Z,5.40
2018-12-09T08:07:13.075Z,5.40
2018-12-09T08:08:47.950Z,5.40
2018-12-09T08:10:22.793Z,5.40
2018-12-09T08:11:57.852Z,5.40
2018-12-09T08:13:32.815Z,5.40
2018-12-09T08:15:07.887Z,5.40
2018-12-09T08:16:42.766Z,5.50
2018-12-09T08:18:17.745Z,5.50
2018-12-09T08:19:52.763Z,5.50
2018-12-09T08:21:27.654Z,5.50
2018-12-09T08:23:02.579Z,5.50
2018-12-09T08:24:37.690Z,5.60
2018-12-09T08:26:12.533Z,5.60
2018-12-09T08:27:47.505Z,5.60
2018-12-09T08:29:22.432Z,5.60
2018-12-09T08:30:57.285Z,5.60
2018-12-09T08:32:32.200Z,5.60
2018-12-09T08:34:07.087Z,5.70
2018-12-09T08:35:41.960Z,5.70
2018-12-09T08:37:16.918Z,5.70
2018-12-09T08:38:51.756Z,5.70
2018-12-09T08:40:26.604Z,5.70
2018-12-09T08:42:01.480Z,5.70
2018-12-09T08:43:36.578Z,5.70
2018-12-09T08:45:11.553Z,5.70
2018-12-09T08:46:46.411Z,5.70
2018-12-09T08:48:21.422Z,5.70
2018-12-09T08:49:56.649Z,5.70
2018-12-09T08:51:31.587Z,5.70
2018-12-09T08:53:07.549Z,5.70
2018-12-09T08:54:42.413Z,5.70
2018-12-09T08:56:17.436Z,5.70
2018-12-09T08:57:52.321Z,5.70
2018-12-09T08:59:27.417Z,5.70
2018-12-09T09:01:02.431Z,5.80
2018-12-09T09:02:39.268Z,5.80
2018-12-09T09:04:14.127Z,5.80
2018-12-09T09:05:48.981Z,5.90
2018-12-09T09:07:24.001Z,5.90
2018-12-09T09:08:58.864Z,5.90
2018-12-09T09:10:33.817Z,5.90
2018-12-09T09:12:08.805Z,5.90
2018-12-09T09:13:43.786Z,6.00
2018-12-09T09:15:18.654Z,6.00
2018-12-09T09:16:54.116Z,6.00
2018-12-09T09:18:29.157Z,6.00
2018-12-09T09:20:05.248Z,6.00
2018-12-09T09:21:40.099Z,6.10
2018-12-09T09:23:15.073Z,6.10
2018-12-09T09:24:49.981Z,6.10
2018-12-09T09:26:24.895Z,6.10
2018-12-09T09:28:00.040Z,6.20
2018-12-09T09:29:34.869Z,6.20
2018-12-09T09:31:09.724Z,6.20
2018-12-09T09:32:44.644Z,6.20
2018-12-09T09:34:19.529Z,6.30
2018-12-09T09:35:54.372Z,6.30
2018-12-09T09:37:29.325Z,6.40
2018-12-09T09:39:05.674Z,6.50
2018-12-09T09:40:43.144Z,6.50
2018-12-09T09:42:18.000Z,6.50
2018-12-09T09:43:52.887Z,6.60
2018-12-09T09:45:27.820Z,6.60
2018-12-09T09:47:02.780Z,6.60
2018-12-09T09:48:37.656Z,6.70
2018-12-09T09:50:12.682Z,6.80
2018-12-09T09:51:47.769Z,6.80
2018-12-09T09:53:22.657Z,6.90
2018-12-09T09:54:57.573Z,6.90
2018-12-09T09:56:32.487Z,7.00
2018-12-09T09:58:07.684Z,7.00
2018-12-09T09:59:42.552Z,7.10
2018-12-09T10:01:17.604Z,7.10
2018-12-09T10:02:52.633Z,7.10
2018-12-09T10:04:28.701Z,7.20
2018-12-09T10:06:03.673Z,7.10
2018-12-09T10:07:38.862Z,7.10
2018-12-09T10:09:13.780Z,7.10
2018-12-09T10:10:48.676Z,7.20
2018-12-09T10:12:23.529Z,7.10
2018-12-09T10:13:58.452Z,7.20
2018-12-09T10:15:33.519Z,7.20
2018-12-09T10:17:08.444Z,7.20
2018-12-09T10:18:43.341Z,7.20
2018-12-09T10:20:18.211Z,7.20
2018-12-09T10:21:53.177Z,7.20
2018-12-09T10:23:28.094Z,7.30
2018-12-09T10:25:03.098Z,7.20
2018-12-09T10:26:38.000Z,7.30
2018-12-09T10:28:12.906Z,7.30
2018-12-09T10:29:47.752Z,7.30
2018-12-09T10:31:22.817Z,7.30
2018-12-09T10:32:57.738Z,7.40
2018-12-09T10:34:38.723Z,7.40
2018-12-09T10:36:09.448Z,7.40
2018-12-09T10:37:44.378Z,7.40
2018-12-09T10:39:19.296Z,7.50
2018-12-09T10:40:54.258Z,7.50
2018-12-09T10:42:29.140Z,7.50
2018-12-09T10:44:04.441Z,7.60
2018-12-09T10:45:39.311Z,7.60
2018-12-09T10:47:14.281Z,7.60
2018-12-09T10:48:49.161Z,7.70
2018-12-09T10:50:24.111Z,7.70
2018-12-09T10:51:59.212Z,7.70
2018-12-09T10:53:34.308Z,7.80
2018-12-09T10:55:09.354Z,7.70
2018-12-09T10:56:44.417Z,7.70
2018-12-09T10:58:19.669Z,7.80
2018-12-09T10:59:54.743Z,7.80
2018-12-09T11:01:34.919Z,7.80
2018-12-09T11:03:09.873Z,7.80
2018-12-09T11:04:44.745Z,7.90
2018-12-09T11:06:19.933Z,7.90
2018-12-09T11:07:54.807Z,7.80
2018-12-09T11:09:29.788Z,7.80
2018-12-09T11:11:04.732Z,7.70
2018-12-09T11:12:39.627Z,7.80
2018-12-09T11:14:14.524Z,7.80
2018-12-09T11:15:49.417Z,7.80
2018-12-09T11:17:24.255Z,7.80
2018-12-09T11:18:59.338Z,7.70
2018-12-09T11:20:34.262Z,7.70
2018-12-09T11:22:09.150Z,7.70
2018-12-09T11:23:44.116Z,7.60
2018-12-09T11:25:19.016Z,7.50
2018-12-09T11:26:53.970Z,7.50
2018-12-09T11:28:28.922Z,7.40
2018-12-09T11:30:04.435Z,7.30
2018-12-09T11:31:39.616Z,7.30
2018-12-09T11:33:14.608Z,7.20
2018-12-09T11:34:49.724Z,7.20
2018-12-09T11:36:24.823Z,7.20
2018-12-09T11:37:59.704Z,7.10
2018-12-09T11:39:35.351Z,7.10
2018-12-09T11:41:10.215Z,7.10
2018-12-09T11:42:45.168Z,7.10
2018-12-09T11:44:20.158Z,7.10
2018-12-09T11:45:55.054Z,7.10
2018-12-09T11:47:30.453Z,7.20
2018-12-09T11:49:05.336Z,7.20
2018-12-09T11:50:40.313Z,7.20
2018-12-09T11:52:15.301Z,7.20
2018-12-09T11:53:50.374Z,7.20
2018-12-09T11:55:25.253Z,7.30
2018-12-09T11:57:00.192Z,7.20
2018-12-09T11:58:35.180Z,7.20
2018-12-09T12:00:13.175Z,7.20
2018-12-09T12:01:48.132Z,7.20
2018-12-09T12:03:23.161Z,7.20
2018-12-09T12:04:58.186Z,7.10
2018-12-09T12:06:33.278Z,7.10
2018-12-09T12:08:08.208Z,7.10
2018-12-09T12:09:43.222Z,7.10
2018-12-09T12:11:18.181Z,7.00
2018-12-09T12:12:53.095Z,6.90
2018-12-09T12:14:28.095Z,6.90
2018-12-09T12:16:03.134Z,6.80
2018-12-09T12:17:38.129Z,6.80
2018-12-09T12:19:13.082Z,6.70
2018-12-09T12:20:48.152Z,6.70
2018-12-09T12:22:23.000Z,6.60
2018-12-09T12:23:57.889Z,6.60
2018-12-09T12:25:32.801Z,6.60
2018-12-09T12:27:07.734Z,6.50
2018-12-09T12:28:42.906Z,6.50
2018-12-09T12:30:18.002Z,6.40
2018-12-09T12:31:52.869Z,6.30
2018-12-09T12:33:27.758Z,6.30
2018-12-09T12:35:02.717Z,6.20
2018-12-09T12:36:37.607Z,6.20
2018-12-09T12:38:13.575Z,6.20
2018-12-09T12:39:48.611Z,6.10
2018-12-09T12:41:23.565Z,6.10
2018-12-09T12:42:58.708Z,6.00
2018-12-09T12:44:33.754Z,6.00
2018-12-09T12:46:08.724Z,6.00
2018-12-09T12:47:43.861Z,6.00
2018-12-09T12:49:19.005Z,6.00
2018-12-09T12:50:54.064Z,6.00
2018-12-09T12:52:29.205Z,5.90
2018-12-09T12:54:05.511Z,5.90
2018-12-09T12:55:40.886Z,5.90
2018-12-09T12:57:16.046Z,5.90
2018-12-09T12:58:51.124Z,5.80
2018-12-09T13:00:26.262Z,5.80
2018-12-09T13:02:01.309Z,5.80
2018-12-09T13:03:36.350Z,5.80
2018-12-09T13:05:11.486Z,5.70
2018-12-09T13:06:46.466Z,5.70
2018-12-09T13:08:21.670Z,5.70
2018-12-09T13:09:56.581Z,5.70
2018-12-09T13:11:31.645Z,5.80
2018-12-09T13:13:07.669Z,5.80
2018-12-09T13:14:42.728Z,5.80
2018-12-09T13:16:17.732Z,5.90
2018-12-09T13:17:52.709Z,5.90
2018-12-09T13:19:27.732Z,6.00
2018-12-09T13:21:02.586Z,6.00
2018-12-09T13:22:38.045Z,6.00
2018-12-09T13:24:13.086Z,6.10
2018-12-09T13:25:48.094Z,6.10
2018-12-09T13:27:23.135Z,6.10
2018-12-09T13:28:58.049Z,6.10
2018-12-09T13:30:33.338Z,6.20
2018-12-09T13:32:08.286Z,6.20
2018-12-09T13:33:43.169Z,6.20
2018-12-09T13:35:18.312Z,6.20
2018-12-09T13:36:53.408Z,6.30
2018-12-09T13:38:28.372Z,6.30
2018-12-09T13:40:03.324Z,6.30
2018-12-09T13:41:38.291Z,6.30
2018-12-09T13:43:13.275Z,6.30
2018-12-09T13:44:48.274Z,6.30
2018-12-09T13:46:23.138Z,6.30
2018-12-09T13:47:58.488Z,6.30
2018-12-09T13:49:33.404Z,6.30
2018-12-09T13:51:08.295Z,6.20
2018-12-09T13:52:43.376Z,6.20
2018-12-09T13:54:18.289Z,6.20
2018-12-09T13:55:53.255Z,6.10
2018-12-09T13:57:28.122Z,6.20
2018-12-09T13:59:03.241Z,6.10
2018-12-09T14:00:38.328Z,6.10
2018-12-09T14:02:13.199Z,6.10
2018-12-09T14:03:48.106Z,6.10
2018-12-09T14:05:24.168Z,6.20
2018-12-09T14:06:59.122Z,6.20
2018-12-09T14:08:34.033Z,6.20
2018-12-09T14:10:09.029Z,6.20
2018-12-09T14:11:44.461Z,6.10
2018-12-09T14:13:19.337Z,6.10
2018-12-09T14:14:54.212Z,6.10
2018-12-09T14:16:29.337Z,6.10
2018-12-09T14:18:04.236Z,6.10
2018-12-09T14:19:39.370Z,6.10
2018-12-09T14:21:15.160Z,6.10
2018-12-09T14:22:51.167Z,6.10
2018-12-09T14:24:26.313Z,6.10
2018-12-09T14:26:01.697Z,6.10
2018-12-09T14:27:36.824Z,6.10
2018-12-09T14:29:11.916Z,6.10
2018-12-09T14:30:47.142Z,6.10
2018-12-09T14:32:22.454Z,6.20
2018-12-09T14:33:57.450Z,6.20
2018-12-09T14:35:32.619Z,6.20
2018-12-09T14:37:07.693Z,6.20
2018-12-09T14:38:42.771Z,6.20
2018-12-09T14:40:17.848Z,6.20
2018-12-09T14:41:52.834Z,6.30
2018-12-09T14:43:27.839Z,6.30
2018-12-09T14:45:02.994Z,6.30
2018-12-09T14:46:38.021Z,6.30
2018-12-09T14:48:12.964Z,6.30
2018-12-09T14:49:47.925Z,6.30
2018-12-09T14:51:23.007Z,6.30
2018-12-09T14:52:57.893Z,6.20
2018-12-09T14:54:33.776Z,6.20
2018-12-09T14:56:08.832Z,6.20
2018-12-09T14:57:44.011Z,6.20
2018-12-09T14:59:19.185Z,6.20
2018-12-09T15:00:54.056Z,6.20
2018-12-09T15:02:28.945Z,6.20
2018-12-09T15:04:04.044Z,6.20
2018-12-09T15:05:38.942Z,6.20
2018-12-09T15:07:13.978Z,6.20
2018-12-09T15:08:48.924Z,6.10
2018-12-09T15:10:23.890Z,6.20
2018-12-09T15:11:58.773Z,6.10
2018-12-09T15:13:33.756Z,6.10
2018-12-09T15:15:08.879Z,6.00
2018-12-09T15:16:44.983Z,6.00
2018-12-09T15:18:20.158Z,5.90
2018-12-09T15:19:56.100Z,5.90
2018-12-09T15:21:31.019Z,5.80
2018-12-09T15:23:05.907Z,5.80
2018-12-09T15:24:41.530Z,5.70
2018-12-09T15:26:16.974Z,5.70
2018-12-09T15:27:51.910Z,5.60
2018-12-09T15:29:26.884Z,5.60
2018-12-09T15:31:01.840Z,5.50
2018-12-09T15:32:36.912Z,5.50
2018-12-09T15:34:11.973Z,5.50
2018-12-09T15:35:46.951Z,5.50
2018-12-09T15:37:21.961Z,5.40
2018-12-09T15:38:56.848Z,5.40
2018-12-09T15:40:32.038Z,5.40
2018-12-09T15:42:07.093Z,5.40
2018-12-09T15:43:42.026Z,5.30
2018-12-09T15:45:17.128Z,5.30
2018-12-09T15:46:52.176Z,5.30
2018-12-09T15:48:27.047Z,5.30
2018-12-09T15:50:02.066Z,5.30
2018-12-09T15:51:36.957Z,5.30
2018-12-09T15:53:11.959Z,5.20
2018-12-09T15:54:47.056Z,5.20
2018-12-09T15:56:22.020Z,5.20
2018-12-09T15:57:56.956Z,5.20
2018-12-09T15:59:32.492Z,5.20
2018-12-09T16:01:07.621Z,5.20
2018-12-09T16:02:42.568Z,5.20
2018-12-09T16:04:17.463Z,5.20
2018-12-09T16:05:52.415Z,5.20
2018-12-09T16:07:27.319Z,5.20
2018-12-09T16:09:02.323Z,5.20
2018-12-09T16:10:39.196Z,5.20
2018-12-09T16:12:14.249Z,5.10
2018-12-09T16:13:49.245Z,5.20
2018-12-09T16:15:24.233Z,5.10
2018-12-09T16:16:59.089Z,5.10
2018-12-09T16:18:33.999Z,5.10
2018-12-09T16:20:09.018Z,5.10
2018-12-09T16:21:44.852Z,5.10
2018-12-09T16:23:19.782Z,5.10
2018-12-09T16:24:54.786Z,5.10
2018-12-09T16:26:29.678Z,5.10
2018-12-09T16:28:04.640Z,5.20
2018-12-09T16:29:40.131Z,5.20
2018-12-09T16:31:15.722Z,5.20
2018-12-09T16:32:50.746Z,5.30
2018-12-09T16:34:26.341Z,5.30
2018-12-09T16:36:02.432Z,5.30
2018-12-09T16:37:37.792Z,5.30
2018-12-09T16:39:12.773Z,5.30
2018-12-09T16:40:47.782Z,5.40
2018-12-09T16:42:22.673Z,5.30
2018-12-09T16:43:58.005Z,5.30
2018-12-09T16:45:33.104Z,5.40
2018-12-09T16:47:08.064Z,5.30
2018-12-09T16:48:43.383Z,5.40
2018-12-09T16:50:19.356Z,5.40
2018-12-09T16:51:54.365Z,5.30
2018-12-09T16:53:29.289Z,5.30
2018-12-09T16:55:04.373Z,5.40
2018-12-09T16:56:39.383Z,5.40
2018-12-09T16:58:14.265Z,5.40
2018-12-09T16:59:49.201Z,5.30
2018-12-09T17:01:24.141Z,5.30
2018-12-09T17:02:59.022Z,5.30
2018-12-09T17:04:33.909Z,5.30
2018-12-09T17:06:08.889Z,5.30
2018-12-09T17:07:43.781Z,5.30
2018-12-09T17:09:18.725Z,5.20
2018-12-09T17:10:53.583Z,5.20
2018-12-09T17:12:28.477Z,5.20
2018-12-09T17:14:03.420Z,5.10
2018-12-09T17:15:38.394Z,5.10
2018-12-09T17:17:13.365Z,5.10
2018-12-09T17:18:48.713Z,5.00
2018-12-09T17:20:23.609Z,5.00
2018-12-09T17:21:58.622Z,5.00
2018-12-09T17:23:33.570Z,5.00
2018-12-09T17:25:08.484Z,5.00
2018-12-09T17:26:43.461Z,4.90
2018-12-09T17:28:18.454Z,4.90
2018-12-09T17:29:53.414Z,4.90
2018-12-09T17:31:28.352Z,4.90
2018-12-09T17:33:03.509Z,4.90
2018-12-09T17:34:38.389Z,4.90
2018-12-09T17:36:13.376Z,5.00
2018-12-09T17:37:48.473Z,5.00
2018-12-09T17:39:23.336Z,5.00
2018-12-09T17:40:58.214Z,5.10
2018-12-09T17:42:33.137Z,5.10
2018-12-09T17:44:08.045Z,5.10
2018-12-09T17:45:43.117Z,5.10
2018-12-09T17:47:18.025Z,5.10
2018-12-09T17:48:53.102Z,5.10
2018-12-09T17:50:28.032Z,5.10
2018-12-09T17:52:03.045Z,5.20
2018-12-09T17:53:38.055Z,5.20
2018-12-09T17:55:14.130Z,5.20
2018-12-09T17:56:50.793Z,5.20
2018-12-09T17:58:25.804Z,5.20
2018-12-09T18:00:00.861Z,5.20
2018-12-09T18:01:36.046Z,5.10
2018-12-09T18:03:11.168Z,5.20
2018-12-09T18:04:46.099Z,5.20
2018-12-09T18:06:21.125Z,5.20
2018-12-09T18:07:56.121Z,5.20
2018-12-09T18:09:31.083Z,5.20
2018-12-09T18:11:05.978Z,5.20
2018-12-09T18:12:48.012Z,5.20
2018-12-09T18:14:17.908Z,5.20
2018-12-09T18:16:01.632Z,5.20
2018-12-09T18:17:36.666Z,5.20
2018-12-09T18:19:11.725Z,5.20
2018-12-09T18:20:46.564Z,5.20
2018-12-09T18:22:21.428Z,5.20
2018-12-09T18:23:56.478Z,5.20
2018-12-09T18:25:31.393Z,5.30
2018-12-09T18:27:06.537Z,5.30
2018-12-09T18:28:41.573Z,5.30
2018-12-09T18:30:16.612Z,5.30
2018-12-09T18:31:51.891Z,5.30
2018-12-09T18:33:26.966Z,5.30
2018-12-09T18:35:01.990Z,5.30
2018-12-09T18:36:37.040Z,5.30
2018-12-09T18:38:12.301Z,5.30
2018-12-09T18:39:47.753Z,5.30
2018-12-09T18:41:22.806Z,5.30
2018-12-09T18:42:57.716Z,5.30
2018-12-09T18:44:32.770Z,5.30
2018-12-09T18:46:07.750Z,5.40
2018-12-09T18:47:42.727Z,5.40
2018-12-09T18:49:18.623Z,5.40
2018-12-09T18:50:53.713Z,5.40
2018-12-09T18:52:28.693Z,5.40
2018-12-09T18:54:03.655Z,5.40
2018-12-09T18:55:39.794Z,5.40
2018-12-09T18:57:15.048Z,5.40
2018-12-09T18:58:50.052Z,5.50
2018-12-09T19:00:25.068Z,5.40
2018-12-09T19:02:00.061Z,5.50
2018-12-09T19:03:35.067Z,5.50
2018-12-09T19:05:10.137Z,5.50
2018-12-09T19:06:45.177Z,5.50
2018-12-09T19:08:20.422Z,5.50
2018-12-09T19:09:55.436Z,5.50
2018-12-09T19:11:30.548Z,5.50
2018-12-09T19:13:05.545Z,5.50
2018-12-09T19:14:40.662Z,5.50
2018-12-09T19:16:15.587Z,5.50
2018-12-09T19:17:50.704Z,5.50
2018-12-09T19:19:25.663Z,5.60
2018-12-09T19:21:00.589Z,5.50
2018-12-09T19:22:35.554Z,5.50
2018-12-09T19:24:10.574Z,5.50
2018-12-09T19:25:45.524Z,5.50
2018-12-09T19:27:20.777Z,5.50
2018-12-09T19:28:55.765Z,5.50
2018-12-09T19:30:30.724Z,5.50
2018-12-09T19:32:05.814Z,5.50
2018-12-09T19:33:42.062Z,5.50
2018-12-09T19:35:17.010Z,5.50
2018-12-09T19:36:53.113Z,5.50
2018-12-09T19:38:30.308Z,5.60
2018-12-09T19:40:05.665Z,5.50
2018-12-09T19:41:41.582Z,5.60
2018-12-09T19:43:16.510Z,5.50
2018-12-09T19:44:51.684Z,5.60
2018-12-09T19:46:26.619Z,5.60
2018-12-09T19:48:02.266Z,5.60
2018-12-09T19:49:37.173Z,5.60
2018-12-09T19:51:12.177Z,5.60
2018-12-09T19:52:48.516Z,5.60
2018-12-09T19:54:23.360Z,5.60
2018-12-09T19:55:58.354Z,5.60
2018-12-09T19:57:33.204Z,5.60
2018-12-09T19:59:08.110Z,5.60
2018-12-09T20:00:42.978Z,5.60
2018-12-09T20:02:17.903Z,5.60
2018-12-09T20:03:53.257Z,5.60
2018-12-09T20:05:28.421Z,5.60
2018-12-09T20:07:03.319Z,5.60
2018-12-09T20:08:38.370Z,5.50
2018-12-09T20:10:13.654Z,5.60
2018-12-09T20:11:48.649Z,5.60
2018-12-09T20:13:25.552Z,5.60
2018-12-09T20:15:00.627Z,5.60
2018-12-09T20:16:35.675Z,5.50
2018-12-09T20:18:10.709Z,5.50
2018-12-09T20:19:45.606Z,5.50
2018-12-09T20:21:20.641Z,5.50
2018-12-09T20:22:55.498Z,5.50
2018-12-09T20:24:30.357Z,5.50
2018-12-09T20:26:05.477Z,5.50
2018-12-09T20:27:40.445Z,5.50
2018-12-09T20:29:15.552Z,5.50
2018-12-09T20:30:50.531Z,5.50
2018-12-09T20:32:25.441Z,5.50
2018-12-09T20:34:00.448Z,5.50
2018-12-09T20:35:36.620Z,5.50
2018-12-09T20:37:12.624Z,5.50
2018-12-09T20:38:47.601Z,5.50
2018-12-09T20:40:22.785Z,5.50
2018-12-09T20:41:57.871Z,5.50
2018-12-09T20:43:32.793Z,5.50
2018-12-09T20:45:09.208Z,5.50
2018-12-09T20:46:44.124Z,5.50
2018-12-09T20:48:19.074Z,5.50
2018-12-09T20:49:53.935Z,5.50
2018-12-09T20:51:28.860Z,5.50
2018-12-09T20:53:03.852Z,5.50
2018-12-09T20:54:38.733Z,5.50
2018-12-09T20:56:14.840Z,5.50
2018-12-09T20:57:49.770Z,5.50
2018-12-09T20:59:24.638Z,5.50
2018-12-09T21:00:59.612Z,5.50
2018-12-09T21:02:34.736Z,5.50
2018-12-09T21:04:09.608Z,5.50
2018-12-09T21:05:44.492Z,5.50
2018-12-09T21:07:19.388Z,5.50